createdAt,value
2022-09-15T00:00:11.060Z,99758.45
2022-09-15T00:01:11.065Z,99763.09
2022-09-15T00:02:11.189Z,99764.29
2022-09-15T00:03:11.124Z,99765.97
2022-09-15T00:04:11.066Z,99764.76
2022-09-15T00:05:11.065Z,99764.28
2022-09-15T00:06:11.061Z,99763.27
2022-09-15T00:07:11.068Z,99764.94
2022-09-15T00:08:11.065Z,99767.74
2022-09-15T00:09:11.066Z,99767.40
2022-09-15T00:10:11.064Z,99768.29
2022-09-15T00:11:21.065Z,99768.20
2022-09-15T00:12:11.063Z,99762.85
2022-09-15T00:13:11.072Z,99767.16
2022-09-15T00:14:11.073Z,99766.78
2022-09-15T00:15:11.063Z,99764.43
2022-09-15T00:16:14.740Z,99763.60
2022-09-15T00:17:11.122Z,99761.29
2022-09-15T00:18:11.067Z,99757.31
2022-09-15T00:19:11.061Z,99759.82
2022-09-15T00:20:11.070Z,99763.86
2022-09-15T00:21:13.061Z,99762.66
2022-09-15T00:22:11.055Z,99757.20
2022-09-15T00:23:11.066Z,99761.98
2022-09-15T00:24:11.058Z,99758.40
2022-09-15T00:25:11.055Z,99760.85
2022-09-15T00:26:12.061Z,99756.59
2022-09-15T00:27:11.059Z,99763.32
2022-09-15T00:28:11.055Z,99758.46
2022-09-15T00:29:11.060Z,99756.36
2022-09-15T00:30:11.059Z,99756.75
2022-09-15T00:31:12.119Z,99758.00
2022-09-15T00:32:11.060Z,99753.65
2022-09-15T00:33:11.059Z,99757.71
2022-09-15T00:34:13.057Z,99757.37
2022-09-15T00:35:11.079Z,99757.12
2022-09-15T00:36:11.063Z,99754.46
2022-09-15T00:37:11.058Z,99752.68
2022-09-15T00:38:11.060Z,99748.72
2022-09-15T00:39:11.061Z,99751.20
2022-09-15T00:40:11.111Z,99753.49
2022-09-15T00:41:11.059Z,99748.09
2022-09-15T00:42:21.061Z,99756.05
2022-09-15T00:43:11.061Z,99751.16
2022-09-15T00:44:21.060Z,99753.02
2022-09-15T00:45:15.061Z,99758.99
2022-09-15T00:46:11.105Z,99754.58
2022-09-15T00:47:19.285Z,99757.68
2022-09-15T00:48:15.149Z,99755.34
2022-09-15T00:49:19.084Z,99756.19
2022-09-15T00:50:13.070Z,99755.80
2022-09-15T00:51:11.059Z,99759.95
2022-09-15T00:52:17.061Z,99754.81
2022-09-15T00:53:11.064Z,99756.98
2022-09-15T00:54:20.060Z,99757.36
2022-09-15T00:55:20.062Z,99750.88
2022-09-15T00:56:11.063Z,99751.90
2022-09-15T00:57:16.071Z,99757.73
2022-09-15T00:58:19.063Z,99756.09
2022-09-15T00:59:14.077Z,99753.18
2022-09-15T01:00:11.064Z,99760.13
2022-09-15T01:01:11.169Z,99754.39
2022-09-15T01:02:19.112Z,99755.42
2022-09-15T01:03:11.062Z,99754.09
2022-09-15T01:04:11.067Z,99752.21
2022-09-15T01:05:12.071Z,99748.89
2022-09-15T01:06:19.061Z,99749.54
2022-09-15T01:07:14.065Z,99744.63
2022-09-15T01:08:16.062Z,99744.52
2022-09-15T01:09:20.064Z,99745.17
2022-09-15T01:10:18.079Z,99745.07
2022-09-15T01:11:11.069Z,99747.71
2022-09-15T01:12:11.064Z,99752.02
2022-09-15T01:13:11.072Z,99749.06
2022-09-15T01:14:11.062Z,99749.99
2022-09-15T01:15:11.066Z,99750.48
2022-09-15T01:16:21.087Z,99748.18
2022-09-15T01:17:19.067Z,99751.04
2022-09-15T01:18:19.063Z,99748.12
2022-09-15T01:19:19.067Z,99750.43
2022-09-15T01:20:19.068Z,99756.23
2022-09-15T01:21:19.060Z,99752.43
2022-09-15T01:22:19.055Z,99752.42
2022-09-15T01:23:19.059Z,99749.97
2022-09-15T01:24:19.056Z,99754.83
2022-09-15T01:25:19.066Z,99748.23
2022-09-15T01:26:21.059Z,99747.10
2022-09-15T01:27:40.979Z,99748.05
2022-09-15T01:28:21.077Z,99750.18
2022-09-15T01:29:21.237Z,99750.78
2022-09-15T01:30:15.067Z,99749.47
2022-09-15T01:31:19.110Z,99750.44
2022-09-15T01:32:23.059Z,99749.84
2022-09-15T01:33:19.064Z,99754.46
2022-09-15T01:34:16.067Z,99759.50
2022-09-15T01:35:20.072Z,99749.29
2022-09-15T01:36:20.061Z,99755.81
2022-09-15T01:37:17.063Z,99750.78
2022-09-15T01:38:21.056Z,99761.03
2022-09-15T01:39:17.073Z,99756.95
2022-09-15T01:40:12.135Z,99760.15
2022-09-15T01:41:16.059Z,99753.68
2022-09-15T01:42:14.062Z,99749.62
2022-09-15T01:43:11.063Z,99751.02
2022-09-15T01:44:18.070Z,99746.43
2022-09-15T01:45:18.059Z,99750.63
2022-09-15T01:46:11.112Z,99753.84
2022-09-15T01:47:11.070Z,99754.67
2022-09-15T01:48:11.063Z,99755.73
2022-09-15T01:49:12.063Z,99760.64
2022-09-15T01:50:20.086Z,99761.16
2022-09-15T01:51:11.063Z,99757.89
2022-09-15T01:52:11.061Z,99761.90
2022-09-15T01:53:14.066Z,99758.32
2022-09-15T01:54:11.063Z,99761.36
2022-09-15T01:55:16.064Z,99761.19
2022-09-15T01:56:11.063Z,99760.86
2022-09-15T01:57:11.071Z,99757.04
2022-09-15T01:58:11.062Z,99756.99
2022-09-15T01:59:11.063Z,99758.65
2022-09-15T02:00:11.063Z,99768.44
2022-09-15T02:01:16.168Z,99760.66
2022-09-15T02:02:23.146Z,99764.36
2022-09-15T02:03:18.063Z,99764.36
2022-09-15T02:04:17.070Z,99765.31
2022-09-15T02:05:19.066Z,99766.68
2022-09-15T02:06:16.062Z,99761.78
2022-09-15T02:07:19.067Z,99766.76
2022-09-15T02:08:19.066Z,99771.66
2022-09-15T02:09:21.076Z,99775.15
2022-09-15T02:10:17.066Z,99771.73
2022-09-15T02:11:19.063Z,99767.68
2022-09-15T02:12:17.060Z,99768.75
2022-09-15T02:13:22.065Z,99769.81
2022-09-15T02:14:26.074Z,99762.55
2022-09-15T02:15:14.068Z,99763.30
2022-09-15T02:16:17.116Z,99766.21
2022-09-15T02:17:13.065Z,99768.33
2022-09-15T02:18:13.064Z,99773.21
2022-09-15T02:19:23.067Z,99776.07
2022-09-15T02:20:21.060Z,99775.36
2022-09-15T02:21:17.055Z,99778.68
2022-09-15T02:22:23.058Z,99780.84
2022-09-15T02:23:20.061Z,99778.34
2022-09-15T02:24:17.066Z,99780.44
2022-09-15T02:25:15.062Z,99780.27
2022-09-15T02:26:12.062Z,99775.81
2022-09-15T02:27:16.059Z,99778.08
2022-09-15T02:28:11.068Z,99775.60
2022-09-15T02:29:14.058Z,99774.16
2022-09-15T02:30:12.061Z,99773.66
2022-09-15T02:31:13.133Z,99774.33
2022-09-15T02:32:12.060Z,99771.32
2022-09-15T02:33:15.058Z,99775.62
2022-09-15T02:34:19.063Z,99773.56
2022-09-15T02:35:11.061Z,99778.02
2022-09-15T02:36:12.063Z,99778.28
2022-09-15T02:37:11.059Z,99780.63
2022-09-15T02:38:11.059Z,99776.64
2022-09-15T02:39:13.061Z,99777.02
2022-09-15T02:40:11.089Z,99778.20
2022-09-15T02:41:11.061Z,99781.50
2022-09-15T02:42:11.070Z,99779.71
2022-09-15T02:43:12.061Z,99778.75
2022-09-15T02:44:11.057Z,99782.99
2022-09-15T02:45:11.063Z,99784.36
2022-09-15T02:46:11.097Z,99783.07
2022-09-15T02:47:11.057Z,99785.53
2022-09-15T02:48:13.070Z,99783.86
2022-09-15T02:49:11.063Z,99783.79
2022-09-15T02:50:11.060Z,99777.47
2022-09-15T02:51:11.063Z,99778.30
2022-09-15T02:52:11.061Z,99776.71
2022-09-15T02:53:11.061Z,99774.14
2022-09-15T02:54:11.062Z,99776.92
2022-09-15T02:55:11.063Z,99773.33
2022-09-15T02:56:11.062Z,99777.11
2022-09-15T02:57:11.062Z,99776.18
2022-09-15T02:58:11.064Z,99775.72
2022-09-15T02:59:11.065Z,99778.08
2022-09-15T03:00:15.062Z,99772.57
2022-09-15T03:01:12.171Z,99778.70
2022-09-15T03:02:11.143Z,99781.84
2022-09-15T03:03:11.071Z,99784.91
2022-09-15T03:04:11.070Z,99781.46
2022-09-15T03:05:11.064Z,99780.19
2022-09-15T03:06:15.066Z,99778.11
2022-09-15T03:07:11.069Z,99779.67
2022-09-15T03:08:11.065Z,99777.84
2022-09-15T03:09:11.060Z,99782.91
2022-09-15T03:10:11.066Z,99778.73
2022-09-15T03:11:11.063Z,99778.18
2022-09-15T03:12:11.062Z,99783.93
2022-09-15T03:13:11.065Z,99782.84
2022-09-15T03:14:11.065Z,99779.59
2022-09-15T03:15:11.071Z,99782.16
2022-09-15T03:16:13.133Z,99780.86
2022-09-15T03:17:11.071Z,99780.24
2022-09-15T03:18:11.062Z,99781.89
2022-09-15T03:19:11.066Z,99785.49
2022-09-15T03:20:11.074Z,99786.00
2022-09-15T03:21:11.058Z,99788.52
2022-09-15T03:22:11.059Z,99785.02
2022-09-15T03:23:11.063Z,99781.74
2022-09-15T03:24:11.059Z,99781.57
2022-09-15T03:25:11.058Z,99781.75
2022-09-15T03:26:11.065Z,99785.65
2022-09-15T03:27:11.062Z,99784.60
2022-09-15T03:28:11.054Z,99789.38
2022-09-15T03:29:11.062Z,99787.60
2022-09-15T03:30:11.059Z,99783.91
2022-09-15T03:31:11.124Z,99792.16
2022-09-15T03:32:11.058Z,99791.41
2022-09-15T03:33:11.059Z,99789.80
2022-09-15T03:34:11.059Z,99794.75
2022-09-15T03:35:11.059Z,99796.42
2022-09-15T03:36:11.063Z,99793.94
2022-09-15T03:37:11.060Z,99796.09
2022-09-15T03:38:11.062Z,99800.71
2022-09-15T03:39:11.061Z,99797.43
2022-09-15T03:40:11.146Z,99796.13
2022-09-15T03:41:12.061Z,99797.02
2022-09-15T03:42:11.067Z,99798.74
2022-09-15T03:43:14.286Z,99797.26
2022-09-15T03:44:13.113Z,99795.76
2022-09-15T03:45:11.068Z,99795.00
2022-09-15T03:46:12.190Z,99793.40
2022-09-15T03:47:11.063Z,99798.87
2022-09-15T03:48:11.064Z,99796.16
2022-09-15T03:49:11.065Z,99796.48
2022-09-15T03:50:11.063Z,99793.38
2022-09-15T03:51:11.065Z,99800.44
2022-09-15T03:52:11.061Z,99800.82
2022-09-15T03:53:11.065Z,99799.16
2022-09-15T03:54:11.062Z,99797.05
2022-09-15T03:55:11.064Z,99796.98
2022-09-15T03:56:19.068Z,99799.18
2022-09-15T03:57:11.063Z,99798.46
2022-09-15T03:58:11.070Z,99801.95
2022-09-15T03:59:11.061Z,99801.37
2022-09-15T04:00:11.059Z,99801.23
2022-09-15T04:01:11.255Z,99797.80
2022-09-15T04:02:11.125Z,99798.65
2022-09-15T04:03:11.066Z,99793.41
2022-09-15T04:04:11.070Z,99796.32
2022-09-15T04:05:11.064Z,99794.14
2022-09-15T04:06:11.066Z,99803.09
2022-09-15T04:07:11.071Z,99802.60
2022-09-15T04:08:12.065Z,99801.75
2022-09-15T04:09:11.062Z,99806.04
2022-09-15T04:10:11.066Z,99804.22
2022-09-15T04:11:11.065Z,99805.97
2022-09-15T04:12:11.066Z,99803.32
2022-09-15T04:13:11.069Z,99808.48
2022-09-15T04:14:11.066Z,99807.12
2022-09-15T04:15:11.063Z,99808.82
2022-09-15T04:16:14.075Z,99802.73
2022-09-15T04:17:11.071Z,99800.95
2022-09-15T04:18:11.067Z,99802.79
2022-09-15T04:19:11.067Z,99799.65
2022-09-15T04:20:11.072Z,99800.59
2022-09-15T04:21:13.056Z,99802.69
2022-09-15T04:22:15.538Z,99802.92
2022-09-15T04:23:13.129Z,99800.69
2022-09-15T04:24:11.061Z,99803.07
2022-09-15T04:25:11.065Z,99805.94
2022-09-15T04:26:14.060Z,99799.06
2022-09-15T04:27:11.059Z,99800.47
2022-09-15T04:28:11.055Z,99796.86
2022-09-15T04:29:13.059Z,99803.48
2022-09-15T04:30:11.065Z,99799.49
2022-09-15T04:31:11.098Z,99799.39
2022-09-15T04:32:11.065Z,99799.89
2022-09-15T04:33:11.068Z,99804.07
2022-09-15T04:34:11.059Z,99805.81
2022-09-15T04:35:11.056Z,99803.95
2022-09-15T04:36:14.069Z,99810.16
2022-09-15T04:37:11.085Z,99808.89
2022-09-15T04:38:11.056Z,99809.87
2022-09-15T04:39:11.060Z,99810.66
2022-09-15T04:40:11.134Z,99808.45
2022-09-15T04:41:11.058Z,99804.50
2022-09-15T04:42:11.060Z,99804.27
2022-09-15T04:43:11.067Z,99804.96
2022-09-15T04:44:11.058Z,99804.86
2022-09-15T04:45:11.059Z,99810.72
2022-09-15T04:46:11.140Z,99809.57
2022-09-15T04:47:11.058Z,99811.17
2022-09-15T04:48:11.060Z,99813.86
2022-09-15T04:49:11.062Z,99813.12
2022-09-15T04:50:11.061Z,99813.13
2022-09-15T04:51:15.060Z,99815.84
2022-09-15T04:52:11.067Z,99815.02
2022-09-15T04:53:11.060Z,99813.10
2022-09-15T04:54:11.080Z,99815.16
2022-09-15T04:55:11.063Z,99812.31
2022-09-15T04:56:11.061Z,99816.49
2022-09-15T04:57:11.059Z,99818.79
2022-09-15T04:58:11.062Z,99815.33
2022-09-15T04:59:15.063Z,99819.15
2022-09-15T05:00:11.062Z,99819.41
2022-09-15T05:01:14.158Z,99822.71
2022-09-15T05:02:11.113Z,99820.18
2022-09-15T05:03:11.063Z,99819.04
2022-09-15T05:04:11.063Z,99822.98
2022-09-15T05:05:11.065Z,99817.53
2022-09-15T05:06:12.064Z,99822.72
2022-09-15T05:07:11.067Z,99822.37
2022-09-15T05:08:11.073Z,99823.80
2022-09-15T05:09:12.063Z,99822.55
2022-09-15T05:10:11.066Z,99823.10
2022-09-15T05:11:12.064Z,99825.68
2022-09-15T05:12:11.062Z,99823.09
2022-09-15T05:13:11.065Z,99820.52
2022-09-15T05:14:11.066Z,99823.31
2022-09-15T05:15:11.062Z,99822.80
2022-09-15T05:16:11.155Z,99823.74
2022-09-15T05:17:11.066Z,99823.25
2022-09-15T05:18:11.062Z,99823.98
2022-09-15T05:19:11.067Z,99828.75
2022-09-15T05:20:11.072Z,99824.14
2022-09-15T05:21:11.059Z,99823.54
2022-09-15T05:22:11.054Z,99827.29
2022-09-15T05:23:11.062Z,99828.54
2022-09-15T05:24:11.061Z,99828.69
2022-09-15T05:25:11.054Z,99830.91
2022-09-15T05:26:13.065Z,99827.87
2022-09-15T05:27:11.059Z,99824.87
2022-09-15T05:28:11.056Z,99829.60
2022-09-15T05:29:11.066Z,99831.19
2022-09-15T05:30:35.903Z,99834.82
2022-09-15T05:31:13.258Z,99834.79
2022-09-15T05:32:11.058Z,99832.11
2022-09-15T05:33:11.060Z,99835.09
2022-09-15T05:34:11.060Z,99827.76
2022-09-15T05:35:11.059Z,99831.45
2022-09-15T05:36:11.060Z,99833.59
2022-09-15T05:37:11.059Z,99830.91
2022-09-15T05:38:11.061Z,99832.01
2022-09-15T05:39:11.060Z,99831.68
2022-09-15T05:40:11.105Z,99836.07
2022-09-15T05:41:11.061Z,99840.62
2022-09-15T05:42:11.067Z,99839.15
2022-09-15T05:43:11.058Z,99838.50
2022-09-15T05:44:11.061Z,99834.41
2022-09-15T05:45:11.067Z,99834.85
2022-09-15T05:46:11.078Z,99837.02
2022-09-15T05:47:11.062Z,99837.22
2022-09-15T05:48:11.069Z,99837.44
2022-09-15T05:49:11.058Z,99839.25
2022-09-15T05:50:11.068Z,99840.18
2022-09-15T05:51:11.069Z,99843.15
2022-09-15T05:52:11.059Z,99847.84
2022-09-15T05:53:11.062Z,99845.59
2022-09-15T05:54:11.068Z,99844.00
2022-09-15T05:55:11.060Z,99848.81
2022-09-15T05:56:12.064Z,99845.74
2022-09-15T05:57:11.069Z,99847.46
2022-09-15T05:58:11.064Z,99851.61
2022-09-15T05:59:11.059Z,99850.61
2022-09-15T06:00:11.069Z,99851.56
2022-09-15T06:01:14.061Z,99851.88
2022-09-15T06:02:11.186Z,99852.53
2022-09-15T06:03:14.170Z,99848.70
2022-09-15T06:04:11.069Z,99849.96
2022-09-15T06:05:11.062Z,99852.83
2022-09-15T06:06:11.063Z,99853.10
2022-09-15T06:07:11.071Z,99849.96
2022-09-15T06:08:11.061Z,99850.39
2022-09-15T06:09:11.064Z,99851.53
2022-09-15T06:10:11.071Z,99854.54
2022-09-15T06:11:14.061Z,99852.84
2022-09-15T06:12:11.069Z,99849.13
2022-09-15T06:13:11.071Z,99848.79
2022-09-15T06:14:11.065Z,99848.89
2022-09-15T06:15:11.060Z,99851.82
2022-09-15T06:16:14.145Z,99853.30
2022-09-15T06:17:11.064Z,99857.63
2022-09-15T06:18:11.064Z,99858.37
2022-09-15T06:19:11.063Z,99861.93
2022-09-15T06:20:11.077Z,99864.25
2022-09-15T06:21:14.057Z,99865.67
2022-09-15T06:22:11.061Z,99867.64
2022-09-15T06:23:11.066Z,99864.71
2022-09-15T06:24:13.055Z,99873.62
2022-09-15T06:25:11.060Z,99870.16
2022-09-15T06:26:11.065Z,99870.97
2022-09-15T06:27:11.060Z,99869.88
2022-09-15T06:28:11.060Z,99868.83
2022-09-15T06:29:13.066Z,99869.10
2022-09-15T06:30:11.059Z,99866.08
2022-09-15T06:31:13.055Z,99867.59
2022-09-15T06:32:11.171Z,99870.64
2022-09-15T06:33:11.061Z,99878.02
2022-09-15T06:34:11.060Z,99872.81
2022-09-15T06:35:11.057Z,99876.02
2022-09-15T06:36:11.059Z,99876.64
2022-09-15T06:37:11.061Z,99877.84
2022-09-15T06:38:11.059Z,99875.63
2022-09-15T06:39:11.059Z,99875.74
2022-09-15T06:40:11.117Z,99875.34
2022-09-15T06:41:11.062Z,99875.38
2022-09-15T06:42:13.819Z,99880.73
2022-09-15T06:43:11.060Z,99880.65
2022-09-15T06:44:11.059Z,99881.27
2022-09-15T06:45:11.062Z,99878.22
2022-09-15T06:46:11.136Z,99878.38
2022-09-15T06:47:11.081Z,99876.61
2022-09-15T06:48:24.125Z,99879.64
2022-09-15T06:49:13.115Z,99880.23
2022-09-15T06:50:11.063Z,99880.95
2022-09-15T06:51:12.068Z,99885.57
2022-09-15T06:52:11.059Z,99887.09
2022-09-15T06:53:11.063Z,99885.45
2022-09-15T06:54:11.065Z,99883.55
2022-09-15T06:55:11.065Z,99884.27
2022-09-15T06:56:12.065Z,99889.00
2022-09-15T06:57:11.063Z,99887.96
2022-09-15T06:58:11.063Z,99886.76
2022-09-15T06:59:13.061Z,99888.57
2022-09-15T07:00:11.062Z,99893.33
2022-09-15T07:01:12.093Z,99893.96
2022-09-15T07:02:11.201Z,99895.29
2022-09-15T07:03:11.234Z,99899.79
2022-09-15T07:04:11.065Z,99896.20
2022-09-15T07:05:11.063Z,99897.41
2022-09-15T07:06:11.065Z,99898.78
2022-09-15T07:07:11.070Z,99901.00
2022-09-15T07:08:11.062Z,99894.94
2022-09-15T07:09:11.064Z,99895.89
2022-09-15T07:10:11.070Z,99898.44
2022-09-15T07:11:11.064Z,99902.22
2022-09-15T07:12:11.067Z,99903.09
2022-09-15T07:13:11.073Z,99902.45
2022-09-15T07:14:11.066Z,99902.13
2022-09-15T07:15:11.063Z,99902.73
2022-09-15T07:16:13.222Z,99906.51
2022-09-15T07:17:11.066Z,99907.06
2022-09-15T07:18:11.060Z,99909.05
2022-09-15T07:19:11.067Z,99910.12
2022-09-15T07:20:11.065Z,99912.48
2022-09-15T07:21:17.060Z,99912.19
2022-09-15T07:22:11.057Z,99911.51
2022-09-15T07:23:11.059Z,99908.82
2022-09-15T07:24:11.060Z,99913.13
2022-09-15T07:25:11.073Z,99903.40
2022-09-15T07:26:15.067Z,99907.01
2022-09-15T07:27:11.064Z,99907.50
2022-09-15T07:28:11.061Z,99905.60
2022-09-15T07:29:11.060Z,99908.16
2022-09-15T07:30:12.061Z,99911.01
2022-09-15T07:31:11.184Z,99913.04
2022-09-15T07:32:11.062Z,99911.04
2022-09-15T07:33:11.061Z,99911.49
2022-09-15T07:34:11.056Z,99914.14
2022-09-15T07:35:11.062Z,99914.78
2022-09-15T07:36:11.064Z,99912.65
2022-09-15T07:37:11.055Z,99916.09
2022-09-15T07:38:11.062Z,99913.88
2022-09-15T07:39:11.059Z,99912.22
2022-09-15T07:40:11.128Z,99914.86
2022-09-15T07:41:13.069Z,99913.11
2022-09-15T07:42:11.064Z,99914.84
2022-09-15T07:43:11.058Z,99913.96
2022-09-15T07:44:11.060Z,99913.45
2022-09-15T07:45:12.062Z,99915.16
2022-09-15T07:46:11.117Z,99916.08
2022-09-15T07:47:11.061Z,99916.77
2022-09-15T07:48:11.077Z,99917.75
2022-09-15T07:49:11.058Z,99914.77
2022-09-15T07:50:11.062Z,99915.33
2022-09-15T07:51:11.069Z,99915.17
2022-09-15T07:52:11.062Z,99915.07
2022-09-15T07:53:11.063Z,99915.57
2022-09-15T07:54:11.068Z,99917.16
2022-09-15T07:55:11.065Z,99912.32
2022-09-15T07:56:11.064Z,99916.20
2022-09-15T07:57:11.068Z,99915.45
2022-09-15T07:58:11.060Z,99922.35
2022-09-15T07:59:11.065Z,99921.71
2022-09-15T08:00:11.070Z,99921.88
2022-09-15T08:01:11.282Z,99923.89
2022-09-15T08:02:16.100Z,99917.51
2022-09-15T08:03:11.063Z,99926.44
2022-09-15T08:04:11.065Z,99927.98
2022-09-15T08:05:11.060Z,99926.22
2022-09-15T08:06:11.063Z,99930.05
2022-09-15T08:07:11.066Z,99923.17
2022-09-15T08:08:11.066Z,99922.75
2022-09-15T08:09:11.065Z,99921.97
2022-09-15T08:10:11.064Z,99922.68
2022-09-15T08:11:15.152Z,99923.15
2022-09-15T08:12:13.608Z,99920.65
2022-09-15T08:13:11.072Z,99924.00
2022-09-15T08:14:11.064Z,99926.66
2022-09-15T08:15:11.061Z,99927.31
2022-09-15T08:16:11.172Z,99926.52
2022-09-15T08:17:11.761Z,99921.59
2022-09-15T08:18:11.061Z,99926.29
2022-09-15T08:19:11.073Z,99928.52
2022-09-15T08:20:11.070Z,99925.41
2022-09-15T08:21:11.058Z,99928.10
2022-09-15T08:22:11.059Z,99929.71
2022-09-15T08:23:11.069Z,99931.77
2022-09-15T08:24:11.057Z,99931.21
2022-09-15T08:25:11.065Z,99929.61
2022-09-15T08:26:14.128Z,99931.01
2022-09-15T08:27:11.056Z,99931.35
2022-09-15T08:28:11.062Z,99934.93
2022-09-15T08:29:11.062Z,99940.65
2022-09-15T08:30:11.055Z,99939.59
2022-09-15T08:31:12.129Z,99939.49
2022-09-15T08:32:11.061Z,99939.94
2022-09-15T08:33:11.059Z,99937.61
2022-09-15T08:34:12.060Z,99938.64
2022-09-15T08:35:11.060Z,99934.33
2022-09-15T08:36:11.057Z,99935.40
2022-09-15T08:37:11.059Z,99941.14
2022-09-15T08:38:11.062Z,99943.06
2022-09-15T08:39:11.107Z,99939.87
2022-09-15T08:40:16.116Z,99944.32
2022-09-15T08:41:19.073Z,99943.57
2022-09-15T08:42:18.061Z,99940.81
2022-09-15T08:43:20.067Z,99946.48
2022-09-15T08:44:20.060Z,99944.57
2022-09-15T08:45:19.063Z,99944.73
2022-09-15T08:46:15.127Z,99948.49
2022-09-15T08:47:16.059Z,99946.49
2022-09-15T08:48:15.057Z,99951.04
2022-09-15T08:49:35.798Z,99953.23
2022-09-15T08:50:21.083Z,99945.83
2022-09-15T08:51:16.063Z,99950.91
2022-09-15T08:52:21.060Z,99954.61
2022-09-15T08:53:23.057Z,99955.41
2022-09-15T08:54:17.064Z,99954.33
2022-09-15T08:55:19.066Z,99953.52
2022-09-15T08:56:15.071Z,99958.91
2022-09-15T08:57:14.062Z,99960.46
2022-09-15T08:58:19.065Z,99958.97
2022-09-15T08:59:15.063Z,99958.67
2022-09-15T09:00:15.071Z,99958.45
2022-09-15T09:01:21.080Z,99955.56
2022-09-15T09:02:19.091Z,99958.10
2022-09-15T09:03:21.065Z,99959.54
2022-09-15T09:04:19.064Z,99964.91
2022-09-15T09:05:19.071Z,99961.39
2022-09-15T09:06:19.065Z,99962.34
2022-09-15T09:07:19.064Z,99962.11
2022-09-15T09:08:21.061Z,99963.22
2022-09-15T09:09:19.068Z,99961.10
2022-09-15T09:10:19.070Z,99958.61
2022-09-15T09:11:20.073Z,99957.64
2022-09-15T09:12:19.065Z,99957.42
2022-09-15T09:13:19.063Z,99958.88
2022-09-15T09:14:19.067Z,99955.98
2022-09-15T09:15:19.069Z,99959.91
2022-09-15T09:16:19.202Z,99956.39
2022-09-15T09:17:21.066Z,99961.08
2022-09-15T09:18:21.063Z,99958.18
2022-09-15T09:19:19.061Z,99959.51
2022-09-15T09:20:19.065Z,99962.17
2022-09-15T09:21:21.065Z,99961.25
2022-09-15T09:22:16.059Z,99967.39
2022-09-15T09:23:14.060Z,99970.93
2022-09-15T09:24:21.061Z,99962.45
2022-09-15T09:25:26.714Z,99961.04
2022-09-15T09:26:15.877Z,99964.30
2022-09-15T09:27:13.058Z,99970.36
2022-09-15T09:28:21.055Z,99971.28
2022-09-15T09:29:18.058Z,99975.04
2022-09-15T09:30:18.067Z,99972.64
2022-09-15T09:31:19.143Z,99971.64
2022-09-15T09:32:21.651Z,99966.61
2022-09-15T09:33:19.056Z,99967.44
2022-09-15T09:34:19.060Z,99964.89
2022-09-15T09:35:19.073Z,99965.19
2022-09-15T09:36:11.059Z,99967.08
2022-09-15T09:37:14.059Z,99968.87
2022-09-15T09:38:17.059Z,99965.85
2022-09-15T09:39:14.064Z,99974.98
2022-09-15T09:40:14.117Z,99970.89
2022-09-15T09:41:14.057Z,99968.98
2022-09-15T09:42:16.060Z,99977.50
2022-09-15T09:43:11.069Z,99971.35
2022-09-15T09:44:14.063Z,99973.29
2022-09-15T09:45:15.064Z,99968.05
2022-09-15T09:46:13.110Z,99972.96
2022-09-15T09:47:11.063Z,99975.57
2022-09-15T09:48:19.057Z,99978.88
2022-09-15T09:49:18.061Z,99976.91
2022-09-15T09:50:19.063Z,99972.45
2022-09-15T09:51:19.063Z,99976.55
2022-09-15T09:52:11.059Z,99974.86
2022-09-15T09:53:19.063Z,99979.51
2022-09-15T09:54:14.071Z,99978.00
2022-09-15T09:55:19.061Z,99977.55
2022-09-15T09:56:21.058Z,99974.87
2022-09-15T09:57:19.065Z,99975.71
2022-09-15T09:58:17.070Z,99981.41
2022-09-15T09:59:19.064Z,99983.32
2022-09-15T10:00:21.062Z,99980.50
2022-09-15T10:01:14.124Z,99976.50
2022-09-15T10:02:20.065Z,99979.17
2022-09-15T10:03:19.066Z,99976.38
2022-09-15T10:04:18.066Z,99972.50
2022-09-15T10:05:18.131Z,99974.53
2022-09-15T10:06:18.066Z,99976.05
2022-09-15T10:07:11.060Z,99979.65
2022-09-15T10:08:18.072Z,99983.91
2022-09-15T10:09:14.066Z,99982.98
2022-09-15T10:10:19.066Z,99980.57
2022-09-15T10:11:11.064Z,99977.78
2022-09-15T10:12:19.065Z,99979.26
2022-09-15T10:13:12.067Z,99979.95
2022-09-15T10:14:18.071Z,99976.63
2022-09-15T10:15:21.066Z,99978.05
2022-09-15T10:16:11.091Z,99977.14
2022-09-15T10:17:19.073Z,99980.52
2022-09-15T10:18:19.068Z,99983.36
2022-09-15T10:19:13.065Z,99980.58
2022-09-15T10:20:19.065Z,99980.14
2022-09-15T10:21:11.059Z,99982.53
2022-09-15T10:22:15.067Z,99979.96
2022-09-15T10:23:21.055Z,99984.00
2022-09-15T10:24:19.057Z,99984.40
2022-09-15T10:25:19.068Z,99981.52
2022-09-15T10:26:19.059Z,99978.33
2022-09-15T10:27:19.073Z,99979.50
2022-09-15T10:28:15.074Z,99979.51
2022-09-15T10:29:15.058Z,99976.92
2022-09-15T10:30:18.057Z,99973.83
2022-09-15T10:31:18.165Z,99970.98
2022-09-15T10:32:22.955Z,99971.13
2022-09-15T10:33:21.872Z,99975.93
2022-09-15T10:34:19.057Z,99974.89
2022-09-15T10:35:17.060Z,99975.57
2022-09-15T10:36:20.070Z,99976.28
2022-09-15T10:37:17.062Z,99978.84
2022-09-15T10:38:18.060Z,99980.95
2022-09-15T10:39:21.061Z,99982.53
2022-09-15T10:40:21.173Z,99983.44
2022-09-15T10:41:19.074Z,99982.78
2022-09-15T10:42:19.064Z,99983.86
2022-09-15T10:43:19.061Z,99979.94
2022-09-15T10:44:19.062Z,99980.64
2022-09-15T10:45:18.070Z,99984.48
2022-09-15T10:46:19.127Z,99983.94
2022-09-15T10:47:21.062Z,99986.09
2022-09-15T10:48:21.058Z,99989.39
2022-09-15T10:49:21.064Z,99987.26
2022-09-15T10:50:21.071Z,99989.55
2022-09-15T10:51:21.071Z,99986.17
2022-09-15T10:52:21.063Z,99989.40
2022-09-15T10:53:21.061Z,99988.78
2022-09-15T10:54:21.063Z,99991.85
2022-09-15T10:55:31.834Z,99988.64
2022-09-15T10:56:23.073Z,99992.01
2022-09-15T10:57:21.117Z,99989.90
2022-09-15T10:58:19.075Z,99990.26
2022-09-15T10:59:21.063Z,99989.48
2022-09-15T11:00:23.062Z,99988.48
2022-09-15T11:01:19.111Z,99989.19
2022-09-15T11:02:19.200Z,99989.30
2022-09-15T11:03:21.071Z,99985.49
2022-09-15T11:04:21.067Z,99983.01
2022-09-15T11:05:22.494Z,99982.71
2022-09-15T11:06:17.068Z,99987.24
2022-09-15T11:07:19.065Z,99983.05
2022-09-15T11:08:19.101Z,99985.35
2022-09-15T11:09:19.106Z,99983.17
2022-09-15T11:10:19.063Z,99986.45
2022-09-15T11:11:19.062Z,99983.87
2022-09-15T11:12:21.084Z,99988.87
2022-09-15T11:13:19.069Z,99988.79
2022-09-15T11:14:21.066Z,99989.55
2022-09-15T11:15:19.066Z,99988.02
2022-09-15T11:16:21.184Z,99988.11
2022-09-15T11:17:19.062Z,99987.98
2022-09-15T11:18:21.066Z,99987.24
2022-09-15T11:19:19.073Z,99992.21
2022-09-15T11:20:19.066Z,99991.78
2022-09-15T11:21:19.059Z,99985.95
2022-09-15T11:22:19.058Z,99985.56
2022-09-15T11:23:20.059Z,99982.90
2022-09-15T11:24:21.069Z,99988.00
2022-09-15T11:25:20.086Z,99980.17
2022-09-15T11:26:19.055Z,99984.23
2022-09-15T11:27:19.053Z,99986.98
2022-09-15T11:28:18.057Z,99983.54
2022-09-15T11:29:19.065Z,99982.91
2022-09-15T11:30:16.065Z,99982.10
2022-09-15T11:31:16.079Z,99983.79
2022-09-15T11:32:17.060Z,99985.69
2022-09-15T11:33:17.087Z,99986.62
2022-09-15T11:34:19.056Z,99983.36
2022-09-15T11:35:19.055Z,99986.18
2022-09-15T11:36:20.058Z,99984.18
2022-09-15T11:37:17.067Z,99986.30
2022-09-15T11:38:19.060Z,99985.96
2022-09-15T11:39:20.119Z,99986.81
2022-09-15T11:40:21.132Z,99984.52
2022-09-15T11:41:19.060Z,99985.56
2022-09-15T11:42:21.077Z,99984.34
2022-09-15T11:43:18.071Z,99984.62
2022-09-15T11:44:19.061Z,99986.09